createdAt,value
2018-01-22T00:02:16.287Z,26.53
2018-01-22T00:04:43.853Z,28.10
2018-01-22T00:07:11.317Z,25.90
2018-01-22T00:09:38.779Z,26.03
2018-01-22T00:12:06.261Z,26.43
2018-01-22T00:14:33.719Z,25.33
2018-01-22T00:17:01.187Z,24.90
2018-01-22T00:19:28.662Z,25.97
2018-01-22T00:21:56.124Z,25.87
2018-01-22T00:24:23.591Z,26.33
2018-01-22T00:26:51.045Z,25.03
2018-01-22T00:29:18.542Z,25.07
2018-01-22T00:31:46.104Z,25.70
2018-01-22T00:34:13.565Z,23.57
2018-01-22T00:36:41.030Z,23.90
2018-01-22T00:39:08.521Z,23.33
2018-01-22T00:41:35.975Z,24.27
2018-01-22T00:44:03.435Z,22.53
2018-01-22T00:46:30.889Z,23.00
2018-01-22T00:48:58.385Z,22.30
2018-01-22T00:51:25.850Z,23.27
2018-01-22T00:53:53.306Z,23.57
2018-01-22T00:56:20.756Z,23.03
2018-01-22T00:58:48.274Z,22.87
2018-01-22T01:01:15.726Z,24.67
2018-01-22T01:03:43.187Z,22.80
2018-01-22T01:06:10.642Z,22.70
2018-01-22T01:08:38.349Z,23.00
2018-01-22T01:11:05.817Z,22.67
2018-01-22T01:13:33.276Z,22.13
2018-01-22T01:16:00.757Z,21.70
2018-01-22T01:18:28.213Z,21.57
2018-01-22T01:20:55.693Z,22.90
2018-01-22T01:23:23.262Z,20.67
2018-01-22T01:25:50.733Z,21.17
2018-01-22T01:28:18.196Z,20.30
2018-01-22T01:30:45.650Z,19.50
2018-01-22T01:33:13.106Z,20.33
2018-01-22T01:35:40.608Z,20.13
2018-01-22T01:38:08.068Z,19.27
2018-01-22T01:40:35.548Z,19.67
2018-01-22T01:43:03.020Z,20.73
2018-01-22T01:45:30.479Z,19.33
2018-01-22T01:47:57.934Z,18.33
2018-01-22T01:50:25.413Z,18.43
2018-01-22T01:52:52.885Z,17.90
2018-01-22T01:55:20.353Z,18.67
2018-01-22T01:57:47.805Z,17.93
2018-01-22T02:00:15.263Z,18.57
2018-01-22T02:02:42.726Z,16.60
2018-01-22T02:05:10.182Z,16.20
2018-01-22T02:07:37.706Z,16.43
2018-01-22T02:10:05.171Z,17.47
2018-01-22T02:12:32.641Z,16.13
2018-01-22T02:15:00.101Z,16.73
2018-01-22T02:17:27.556Z,15.43
2018-01-22T02:19:55.015Z,15.80
2018-01-22T02:22:22.522Z,17.00
2018-01-22T02:24:49.990Z,15.63
2018-01-22T02:27:17.444Z,17.63
2018-01-22T02:29:44.923Z,17.80
2018-01-22T02:32:12.389Z,19.17
2018-01-22T02:34:39.857Z,18.73
2018-01-22T02:37:07.317Z,18.70
2018-01-22T02:39:34.777Z,18.63
2018-01-22T02:42:02.247Z,19.67
2018-01-22T02:44:29.734Z,19.30
2018-01-22T02:46:57.188Z,19.33
2018-01-22T02:49:24.782Z,19.87
2018-01-22T02:51:52.349Z,20.20
2018-01-22T02:54:19.914Z,20.27
2018-01-22T02:56:47.386Z,22.40
2018-01-22T02:59:14.853Z,23.37
2018-01-22T03:01:42.425Z,22.83
2018-01-22T03:04:09.904Z,21.97
2018-01-22T03:06:37.473Z,22.13
2018-01-22T03:09:05.037Z,22.20
2018-01-22T03:11:32.512Z,22.43
2018-01-22T03:13:59.973Z,22.47
2018-01-22T03:16:27.436Z,22.30
2018-01-22T03:18:54.917Z,23.20
2018-01-22T03:21:22.513Z,24.23
2018-01-22T03:23:50.773Z,24.47
2018-01-22T03:26:18.233Z,24.13
2018-01-22T03:28:45.706Z,23.53
2018-01-22T03:31:13.175Z,22.53
2018-01-22T03:33:40.754Z,25.77
2018-01-22T03:36:08.213Z,22.80
2018-01-22T03:38:35.689Z,22.03
2018-01-22T03:41:03.165Z,22.10
2018-01-22T03:43:30.630Z,21.97
2018-01-22T03:45:58.089Z,19.97
2018-01-22T03:48:25.570Z,20.20
2018-01-22T03:50:53.038Z,19.37
2018-01-22T03:53:20.604Z,19.07
2018-01-22T03:55:48.174Z,18.97
2018-01-22T03:58:15.650Z,18.77
2018-01-22T04:00:43.119Z,19.07
2018-01-22T04:03:10.690Z,19.27
2018-01-22T04:05:38.152Z,19.57
2018-01-22T04:08:05.613Z,19.50
2018-01-22T04:10:33.093Z,19.23
2018-01-22T04:13:00.661Z,18.60
2018-01-22T04:15:28.230Z,20.23
2018-01-22T04:17:55.689Z,17.70
2018-01-22T04:20:23.154Z,18.73
2018-01-22T04:22:50.620Z,19.20
2018-01-22T04:25:18.109Z,19.87
2018-01-22T04:27:45.575Z,17.83
2018-01-22T04:30:13.049Z,18.63
2018-01-22T04:32:40.620Z,17.00
2018-01-22T04:35:08.085Z,15.77
2018-01-22T04:37:35.549Z,17.70
2018-01-22T04:40:03.026Z,15.70
2018-01-22T04:42:30.481Z,16.57
2018-01-22T04:44:57.963Z,15.13
2018-01-22T04:47:25.533Z,13.83
2018-01-22T04:49:53.105Z,13.60
2018-01-22T04:52:20.594Z,13.53
2018-01-22T04:54:48.052Z,12.60
2018-01-22T04:57:15.617Z,13.67
2018-01-22T04:59:43.187Z,12.70
2018-01-22T05:02:10.765Z,14.03
2018-01-22T05:04:38.227Z,15.20
2018-01-22T05:07:05.804Z,12.57
2018-01-22T05:09:33.368Z,13.33
2018-01-22T05:12:00.830Z,12.10
2018-01-22T05:14:28.306Z,13.13
2018-01-22T05:16:55.767Z,13.10
2018-01-22T05:19:23.249Z,12.33
2018-01-22T05:21:50.821Z,13.57
2018-01-22T05:24:18.386Z,13.67
2018-01-22T05:26:45.849Z,13.80
2018-01-22T05:29:13.424Z,15.07
2018-01-22T05:31:40.886Z,15.57
2018-01-22T05:34:08.369Z,14.37
2018-01-22T05:36:35.834Z,15.03
2018-01-22T05:39:03.300Z,13.87
2018-01-22T05:41:30.771Z,13.27
2018-01-22T05:43:58.228Z,14.70
2018-01-22T05:46:25.713Z,15.97
2018-01-22T05:48:53.980Z,17.23
2018-01-22T05:51:21.572Z,13.70
2018-01-22T05:53:49.045Z,23.73
2018-01-22T05:56:16.543Z,15.60
2018-01-22T05:58:44.773Z,16.63
2018-01-22T06:01:12.257Z,14.77
2018-01-22T06:03:39.735Z,13.83
2018-01-22T06:06:07.269Z,20.67
2018-01-22T06:08:34.773Z,16.10
2018-01-22T06:11:02.241Z,14.47
2018-01-22T06:13:29.704Z,15.37
2018-01-22T06:15:57.250Z,15.87
2018-01-22T06:18:24.753Z,15.63
2018-01-22T06:20:52.217Z,15.10
2018-01-22T06:23:19.677Z,14.77
2018-01-22T06:25:47.145Z,15.23
2018-01-22T06:28:14.604Z,13.90
2018-01-22T06:30:42.059Z,15.33
2018-01-22T06:33:09.561Z,20.80
2018-01-22T06:35:37.023Z,14.80
2018-01-22T06:38:04.502Z,14.73
2018-01-22T06:40:32.076Z,15.80
2018-01-22T06:42:59.534Z,13.73
2018-01-22T06:45:26.999Z,13.63
2018-01-22T06:47:54.457Z,13.50
2018-01-22T06:50:21.919Z,13.40
2018-01-22T06:52:49.381Z,14.17
2018-01-22T06:55:16.843Z,13.43
2018-01-22T06:57:44.305Z,14.77
2018-01-22T07:00:11.766Z,13.40
2018-01-22T07:02:40.011Z,13.43
2018-01-22T07:05:07.577Z,13.33
2018-01-22T07:07:35.050Z,14.87
2018-01-22T07:10:02.619Z,14.23
2018-01-22T07:12:30.082Z,14.07
2018-01-22T07:14:57.536Z,14.70
2018-01-22T07:17:25.007Z,14.27
2018-01-22T07:19:52.465Z,13.70
2018-01-22T07:22:19.957Z,14.23
2018-01-22T07:24:47.433Z,14.47
2018-01-22T07:27:14.901Z,14.77
2018-01-22T07:29:42.356Z,13.67
2018-01-22T07:32:09.828Z,12.10
2018-01-22T07:34:37.310Z,13.77
2018-01-22T07:37:04.786Z,14.63
2018-01-22T07:39:32.345Z,14.13
2018-01-22T07:41:59.813Z,13.43
2018-01-22T07:44:27.268Z,13.30
2018-01-22T07:46:54.807Z,13.60
2018-01-22T07:49:22.232Z,13.87
2018-01-22T07:51:49.689Z,14.50
2018-01-22T07:54:17.150Z,14.33
2018-01-22T07:56:44.628Z,14.23
2018-01-22T07:59:12.095Z,12.80
2018-01-22T08:01:39.571Z,12.60
2018-01-22T08:04:07.021Z,13.07
2018-01-22T08:06:34.510Z,13.10
2018-01-22T08:09:02.071Z,12.13
2018-01-22T08:11:29.540Z,12.17
2018-01-22T08:13:57.005Z,12.37
2018-01-22T08:16:24.479Z,12.20
2018-01-22T08:18:51.949Z,14.27
2018-01-22T08:21:19.401Z,13.07
2018-01-22T08:23:46.855Z,13.13
2018-01-22T08:26:14.301Z,11.10
2018-01-22T08:28:42.525Z,13.00
2018-01-22T08:31:09.984Z,12.30
2018-01-22T08:33:37.441Z,13.00
2018-01-22T08:36:04.945Z,12.47
2018-01-22T08:38:32.451Z,12.60
2018-01-22T08:40:59.995Z,12.87
2018-01-22T08:43:27.453Z,13.17
2018-01-22T08:45:54.915Z,12.93
2018-01-22T08:48:22.371Z,13.30
2018-01-22T08:50:49.830Z,12.93
2018-01-22T08:53:17.346Z,12.67
2018-01-22T08:55:44.793Z,13.17
2018-01-22T08:58:12.285Z,13.20
2018-01-22T09:00:39.750Z,14.53
2018-01-22T09:03:07.203Z,14.70
2018-01-22T09:05:34.661Z,14.23
2018-01-22T09:08:02.158Z,16.07
2018-01-22T09:10:29.614Z,16.80
2018-01-22T09:12:57.081Z,17.00
2018-01-22T09:15:24.567Z,17.70
2018-01-22T09:17:52.133Z,17.63
2018-01-22T09:20:19.590Z,16.30
2018-01-22T09:22:47.066Z,16.67
2018-01-22T09:25:14.525Z,14.80
2018-01-22T09:27:42.006Z,16.10
2018-01-22T09:30:09.469Z,17.63
2018-01-22T09:32:36.945Z,15.63
2018-01-22T09:35:04.402Z,16.53
2018-01-22T09:37:31.861Z,14.97
2018-01-22T09:39:59.361Z,14.37
2018-01-22T09:42:26.817Z,14.43
2018-01-22T09:44:54.306Z,14.53
2018-01-22T09:47:21.870Z,14.13
2018-01-22T09:49:49.446Z,13.63
2018-01-22T09:52:16.912Z,13.17
2018-01-22T09:54:44.378Z,14.53
2018-01-22T09:57:11.840Z,13.67
2018-01-22T09:59:39.312Z,14.23
2018-01-22T10:02:06.777Z,15.27
2018-01-22T10:04:34.235Z,14.53
2018-01-22T10:07:01.687Z,15.40
2018-01-22T10:09:29.146Z,14.20
2018-01-22T10:11:56.657Z,13.57
2018-01-22T10:14:24.113Z,14.03
2018-01-22T10:16:51.570Z,14.67
2018-01-22T10:19:19.063Z,14.93
2018-01-22T10:21:46.560Z,15.60
2018-01-22T10:24:14.002Z,15.20
2018-01-22T10:26:41.462Z,14.63
2018-01-22T10:29:08.943Z,14.43
2018-01-22T10:31:36.397Z,15.00
2018-01-22T10:34:03.886Z,15.53
2018-01-22T10:36:31.340Z,14.93
2018-01-22T10:38:58.862Z,14.90
2018-01-22T10:41:26.282Z,14.97
2018-01-22T10:43:53.754Z,14.73
2018-01-22T10:46:21.227Z,14.80
2018-01-22T10:48:48.795Z,12.80
2018-01-22T10:51:16.257Z,14.70
2018-01-22T10:53:43.829Z,13.43
2018-01-22T10:56:11.289Z,12.70
2018-01-22T10:58:38.773Z,13.70
2018-01-22T11:01:06.228Z,14.03
2018-01-22T11:03:33.712Z,13.47
2018-01-22T11:06:01.166Z,13.50
2018-01-22T11:08:28.632Z,12.27
2018-01-22T11:10:56.129Z,10.17
2018-01-22T11:13:23.590Z,11.20
2018-01-22T11:15:56.858Z,11.53
2018-01-22T11:18:24.368Z,11.13
2018-01-22T11:20:51.937Z,10.33
2018-01-22T11:23:19.410Z,9.93
2018-01-22T11:25:46.879Z,10.87
2018-01-22T11:28:14.337Z,10.47
2018-01-22T11:30:41.788Z,11.03
2018-01-22T11:33:09.245Z,10.40
2018-01-22T11:35:36.745Z,10.97
2018-01-22T11:38:04.214Z,10.93
2018-01-22T11:40:31.677Z,10.47
2018-01-22T11:42:59.141Z,10.67
2018-01-22T11:45:26.605Z,10.23
2018-01-22T11:47:54.073Z,10.17
2018-01-22T11:50:21.612Z,11.77
2018-01-22T11:52:49.030Z,13.30
2018-01-22T11:55:16.500Z,11.00
2018-01-22T11:57:43.957Z,9.93
2018-01-22T12:00:11.439Z,10.03
2018-01-22T12:02:38.902Z,9.63
2018-01-22T12:05:06.363Z,9.63
2018-01-22T12:07:33.847Z,9.40
2018-01-22T12:10:01.305Z,9.47
2018-01-22T12:12:28.781Z,9.40
2018-01-22T12:14:56.234Z,10.53
2018-01-22T12:17:23.717Z,10.70
2018-01-22T12:19:51.186Z,8.40
2018-01-22T12:22:18.654Z,10.87
2018-01-22T12:24:46.126Z,15.97
2018-01-22T12:27:13.585Z,11.03
2018-01-22T12:29:41.063Z,16.57
2018-01-22T12:32:08.519Z,20.53
2018-01-22T12:34:35.998Z,13.90
2018-01-22T12:37:03.454Z,12.47
2018-01-22T12:39:30.918Z,11.40
2018-01-22T12:41:58.403Z,11.90
2018-01-22T12:44:25.978Z,12.17
2018-01-22T12:46:53.447Z,10.77
2018-01-22T12:49:21.018Z,13.00
2018-01-22T12:51:48.476Z,13.97
2018-01-22T12:54:15.958Z,15.03
2018-01-22T12:56:43.425Z,12.73
2018-01-22T12:59:10.894Z,13.53
2018-01-22T13:01:38.357Z,14.93
2018-01-22T13:04:05.834Z,12.30
2018-01-22T13:06:33.300Z,13.43
2018-01-22T13:09:00.759Z,15.20
2018-01-22T13:11:31.317Z,16.73
2018-01-22T13:13:58.775Z,17.80
2018-01-22T13:16:26.245Z,17.27
2018-01-22T13:18:53.707Z,15.80
2018-01-22T13:21:21.184Z,16.00
2018-01-22T13:23:48.647Z,15.43
2018-01-22T13:26:16.117Z,25.23
2018-01-22T13:28:43.643Z,24.73
2018-01-22T13:31:11.861Z,29.13
2018-01-22T13:33:39.319Z,24.70
2018-01-22T13:36:06.817Z,21.63
2018-01-22T13:38:34.287Z,19.23
2018-01-22T13:41:07.576Z,20.50
2018-01-22T13:43:35.041Z,16.93
2018-01-22T13:46:02.634Z,15.37
2018-01-22T13:48:30.097Z,18.13
2018-01-22T13:50:57.597Z,18.83
2018-01-22T13:53:25.041Z,18.03
2018-01-22T13:55:52.493Z,20.27
2018-01-22T13:58:19.977Z,22.27
2018-01-22T14:00:47.453Z,18.90
2018-01-22T14:03:14.921Z,18.67
2018-01-22T14:05:42.390Z,22.03
2018-01-22T14:08:09.862Z,24.60
2018-01-22T14:10:37.326Z,25.43
2018-01-22T14:13:04.796Z,23.33
2018-01-22T14:15:32.366Z,28.20
2018-01-22T14:17:59.833Z,23.77
2018-01-22T14:20:27.401Z,35.53
2018-01-22T14:22:54.877Z,24.47
2018-01-22T14:25:22.345Z,17.90
2018-01-22T14:27:49.803Z,27.03
2018-01-22T14:30:17.274Z,43.63
2018-01-22T14:32:44.733Z,33.50
2018-01-22T14:35:12.193Z,21.40
2018-01-22T14:37:39.684Z,36.00
2018-01-22T14:40:07.141Z,37.30
2018-01-22T14:42:34.594Z,34.70
2018-01-22T14:45:02.053Z,24.27
2018-01-22T14:47:29.565Z,30.40
2018-01-22T14:49:57.023Z,28.10
2018-01-22T14:52:24.713Z,28.90
2018-01-22T14:54:52.162Z,24.70
2018-01-22T14:57:19.645Z,25.60
2018-01-22T14:59:47.114Z,28.47
2018-01-22T15:02:14.573Z,63.37
2018-01-22T15:04:42.030Z,27.97
2018-01-22T15:07:09.521Z,28.63
2018-01-22T15:09:36.990Z,30.37
2018-01-22T15:12:04.448Z,28.83
2018-01-22T15:14:31.907Z,27.40
2018-01-22T15:16:59.956Z,25.80
2018-01-22T15:19:28.187Z,26.80
2018-01-22T15:21:55.657Z,25.43
2018-01-22T15:24:23.111Z,28.53
2018-01-22T15:27:01.723Z,30.37
2018-01-22T15:29:29.246Z,24.17
2018-01-22T15:31:56.709Z,24.23
2018-01-22T15:34:24.222Z,25.77
2018-01-22T15:36:51.673Z,24.83
2018-01-22T15:39:19.927Z,19.60
2018-01-22T15:41:47.402Z,20.00
2018-01-22T15:44:15.508Z,30.47
2018-01-22T15:46:43.058Z,31.27
2018-01-22T15:49:10.522Z,27.40
2018-01-22T15:51:38.089Z,24.40
2018-01-22T15:54:05.548Z,23.67
2018-01-22T15:56:33.017Z,22.40
2018-01-22T15:59:00.473Z,24.10
2018-01-22T16:01:27.943Z,22.37
2018-01-22T16:03:55.445Z,23.80
2018-01-22T16:06:23.006Z,22.20
2018-01-22T16:08:50.465Z,21.93
2018-01-22T16:11:17.952Z,22.20
2018-01-22T16:13:45.414Z,24.40
2018-01-22T16:16:12.885Z,22.80
2018-01-22T16:18:40.422Z,25.07
2018-01-22T16:21:07.888Z,24.77
2018-01-22T16:23:35.452Z,25.40
2018-01-22T16:26:03.002Z,24.50
2018-01-22T16:28:30.541Z,25.30
2018-01-22T16:30:58.231Z,24.33
2018-01-22T16:33:30.674Z,22.70
2018-01-22T16:35:58.165Z,24.40
2018-01-22T16:38:25.757Z,22.20
2018-01-22T16:40:54.000Z,25.13
2018-01-22T16:43:21.503Z,25.87
2018-01-22T16:45:48.973Z,27.10
2018-01-22T16:48:16.533Z,27.00
2018-01-22T16:50:44.018Z,29.27
2018-01-22T16:53:11.497Z,29.47
2018-01-22T16:55:39.085Z,27.00
2018-01-22T16:58:07.351Z,26.03
2018-01-22T17:06:15.497Z,24.17
2018-01-22T17:08:42.959Z,22.23
2018-01-22T17:11:10.405Z,22.67
2018-01-22T17:13:37.931Z,24.83
2018-01-22T17:16:05.386Z,25.70
2018-01-22T17:18:32.969Z,27.43
2018-01-22T17:21:00.434Z,30.13
2018-01-22T17:23:27.895Z,29.73
2018-01-22T17:25:55.361Z,32.60
2018-01-22T17:28:22.819Z,29.33
2018-01-22T17:30:50.279Z,32.73
2018-01-22T17:33:17.730Z,30.43
2018-01-22T17:35:45.200Z,31.23
2018-01-22T17:38:12.715Z,33.10
2018-01-22T17:40:40.178Z,35.67
2018-01-22T17:43:07.654Z,32.73
2018-01-22T17:45:35.117Z,33.43
2018-01-22T17:48:03.005Z,33.70
2018-01-22T17:50:30.615Z,34.47
2018-01-22T17:52:58.828Z,32.00
2018-01-22T17:55:26.298Z,31.23
2018-01-22T17:57:53.748Z,33.00
2018-01-22T18:00:21.262Z,33.30
2018-01-22T18:02:48.793Z,29.10
2018-01-22T18:05:16.251Z,31.30
2018-01-22T18:07:44.488Z,30.60
2018-01-22T18:10:11.944Z,26.30
2018-01-22T18:12:39.417Z,29.87
2018-01-22T18:15:06.873Z,35.03
2018-01-22T18:17:34.330Z,31.73
2018-01-22T18:20:01.785Z,44.17
2018-01-22T18:22:29.297Z,40.90
2018-01-22T18:24:56.750Z,36.87
2018-01-22T18:27:24.263Z,31.53
2018-01-22T18:29:52.507Z,29.37
2018-01-22T18:32:20.038Z,35.83
2018-01-22T18:34:48.326Z,28.97
2018-01-22T18:37:16.551Z,31.37
2018-01-22T18:39:44.298Z,31.73
2018-01-22T18:42:11.778Z,34.20
2018-01-22T18:44:39.295Z,27.93
2018-01-22T18:47:06.749Z,33.80
2018-01-22T18:49:34.217Z,29.07
2018-01-22T18:52:01.672Z,31.93
2018-01-22T18:54:29.162Z,32.27
2018-01-22T18:56:56.822Z,29.97
2018-01-22T18:59:24.278Z,28.70
2018-01-22T19:01:51.795Z,33.80
2018-01-22T19:04:19.355Z,37.90
2018-01-22T19:06:46.820Z,36.27
2018-01-22T19:09:14.280Z,35.03
2018-01-22T19:11:41.742Z,39.30
2018-01-22T19:14:09.210Z,38.07
2018-01-22T19:16:36.720Z,38.57
2018-01-22T19:19:04.169Z,36.30
2018-01-22T19:21:31.729Z,38.97
2018-01-22T19:23:59.189Z,35.90
2018-01-22T19:26:26.649Z,35.53
2018-01-22T19:28:54.216Z,34.33
2018-01-22T19:31:21.676Z,35.10
2018-01-22T19:33:49.180Z,35.23
2018-01-22T19:36:16.644Z,30.93
2018-01-22T19:38:44.153Z,44.90
2018-01-22T19:41:12.466Z,42.37
2018-01-22T19:43:39.979Z,41.10
2018-01-22T19:46:07.452Z,35.87
2018-01-22T19:48:34.963Z,35.13
2018-01-22T19:51:03.255Z,31.10
2018-01-22T19:53:31.599Z,27.87
2018-01-22T19:55:59.129Z,27.23
2018-01-22T19:58:26.674Z,25.73
2018-01-22T20:00:54.973Z,25.17
2018-01-22T20:03:23.232Z,26.07
2018-01-22T20:05:50.737Z,28.93
2018-01-22T20:08:18.261Z,24.40
2018-01-22T20:10:46.088Z,24.50
2018-01-22T20:16:10.320Z,24.23
2018-01-22T20:18:37.782Z,25.37
2018-01-22T20:21:05.287Z,24.67
2018-01-22T20:23:32.841Z,26.23
2018-01-22T20:26:00.456Z,24.97
2018-01-22T20:28:27.965Z,25.40
2018-01-22T20:30:55.646Z,25.23
2018-01-22T20:33:23.250Z,25.33
2018-01-22T20:35:51.535Z,26.27
2018-01-22T20:38:19.814Z,29.23
2018-01-22T20:40:48.080Z,30.73
2018-01-22T20:43:15.589Z,27.37
2018-01-22T20:45:43.095Z,32.83
2018-01-22T20:48:10.599Z,35.70
2018-01-22T20:50:38.052Z,37.13
2018-01-22T20:53:05.552Z,33.23
2018-01-22T20:55:33.047Z,34.10
2018-01-22T20:58:01.308Z,35.27
2018-01-22T21:00:29.582Z,33.50
2018-01-22T21:02:57.846Z,33.77
2018-01-22T21:05:25.300Z,37.53
2018-01-22T21:07:52.863Z,37.07
2018-01-22T21:10:21.106Z,34.70
2018-01-22T21:12:49.380Z,37.17
2018-01-22T21:15:17.646Z,39.27
2018-01-22T21:17:45.104Z,35.23
2018-01-22T21:20:12.572Z,35.17
2018-01-22T21:22:40.071Z,33.63
2018-01-22T21:25:08.291Z,33.23
2018-01-22T21:27:35.802Z,30.40
2018-01-22T21:30:04.027Z,32.13
2018-01-22T21:32:31.518Z,30.77
2018-01-22T21:34:58.988Z,29.10
2018-01-22T21:37:27.216Z,29.87
2018-01-22T21:39:54.710Z,30.50
2018-01-22T21:42:22.152Z,28.43
2018-01-22T21:44:49.615Z,28.80
2018-01-22T21:47:17.110Z,31.07
2018-01-22T21:49:44.598Z,30.73
2018-01-22T21:52:12.090Z,33.87
2018-01-22T21:54:39.583Z,34.43
2018-01-22T21:57:07.062Z,34.43
2018-01-22T21:59:34.499Z,35.47
2018-01-22T22:02:02.001Z,34.73
2018-01-22T22:04:29.519Z,36.57
2018-01-22T22:06:56.956Z,38.27
2018-01-22T22:09:25.222Z,39.90
2018-01-22T22:11:53.427Z,37.67
2018-01-22T22:14:20.888Z,38.77
2018-01-22T22:16:48.344Z,37.40
2018-01-22T22:19:15.794Z,35.77
2018-01-22T22:21:43.288Z,34.23
2018-01-22T22:24:10.740Z,31.00
2018-01-22T22:26:38.200Z,30.30
2018-01-22T22:29:05.652Z,29.93
2018-01-22T22:31:33.151Z,27.77
2018-01-22T22:34:01.356Z,27.20
2018-01-22T22:36:28.812Z,25.10
2018-01-22T22:38:56.263Z,27.30
2018-01-22T22:41:23.724Z,25.93
2018-01-22T22:43:51.181Z,27.93
2018-01-22T22:46:18.644Z,29.77
2018-01-22T22:48:46.091Z,28.90
2018-01-22T22:51:13.555Z,27.87
2018-01-22T22:53:40.999Z,28.90
2018-01-22T22:56:08.450Z,27.20
2018-01-22T22:58:35.900Z,26.33
2018-01-22T23:01:03.347Z,26.93
2018-01-22T23:03:30.809Z,28.10
2018-01-22T23:05:59.022Z,31.53
2018-01-22T23:08:26.459Z,26.73
2018-01-22T23:10:53.911Z,25.87
2018-01-22T23:13:21.368Z,26.73
2018-01-22T23:15:48.823Z,24.53
2018-01-22T23:18:16.280Z,28.13
2018-01-22T23:20:43.741Z,30.37
2018-01-22T23:23:11.615Z,25.90
2018-01-22T23:25:39.068Z,24.93
2018-01-22T23:28:06.520Z,23.10
2018-01-22T23:30:33.964Z,23.30
2018-01-22T23:33:01.408Z,21.87
2018-01-22T23:35:28.873Z,23.23
2018-01-22T23:37:56.317Z,21.43
2018-01-22T23:40:24.555Z,20.57
2018-01-22T23:42:52.000Z,20.50
2018-01-22T23:45:19.452Z,21.00
2018-01-22T23:47:46.903Z,20.90
2018-01-22T23:50:14.357Z,18.53
2018-01-22T23:52:41.807Z,19.10
2018-01-22T23:55:09.260Z,19.97
2018-01-22T23:57:36.710Z,18.43
